createdAt,value
2023-11-30T07:20:17.122Z,81.70
2023-11-30T07:23:18.857Z,81.90
2023-11-30T07:26:21.038Z,82.00
2023-11-30T07:29:26.364Z,82.10
2023-11-30T07:32:28.778Z,82.20
2023-11-30T07:35:30.548Z,82.30
2023-11-30T07:38:32.407Z,82.40
2023-11-30T07:41:34.171Z,82.40
2023-11-30T07:44:36.539Z,82.20
2023-11-30T07:47:38.624Z,82.00
2023-11-30T07:50:41.427Z,82.00
2023-11-30T07:53:43.254Z,82.00
2023-11-30T07:56:45.147Z,82.00
2023-11-30T07:59:48.841Z,82.10
2023-11-30T08:02:50.639Z,82.20
2023-11-30T08:05:52.379Z,82.50
2023-11-30T08:08:54.138Z,82.70
2023-11-30T08:11:55.835Z,83.00
2023-11-30T08:14:57.524Z,83.10
2023-11-30T08:17:59.302Z,83.00
2023-11-30T08:21:03.469Z,83.10
2023-11-30T08:24:05.623Z,83.10
2023-11-30T08:27:07.535Z,83.30
2023-11-30T08:30:13.194Z,83.30
2023-11-30T08:33:15.100Z,83.30
2023-11-30T08:36:17.082Z,83.40
2023-11-30T08:39:25.125Z,83.50
2023-11-30T08:42:29.967Z,83.60
2023-11-30T08:45:33.328Z,83.60
2023-11-30T08:48:35.480Z,83.70
2023-11-30T08:51:37.455Z,83.70
2023-11-30T08:54:39.557Z,83.70
2023-11-30T08:57:43.453Z,83.70
2023-11-30T09:00:46.533Z,83.50
2023-11-30T09:03:48.311Z,83.60
2023-11-30T09:06:50.211Z,83.90
2023-11-30T09:09:52.122Z,83.90
2023-11-30T09:12:53.976Z,84.00
2023-11-30T09:15:56.094Z,84.10
2023-11-30T09:18:57.979Z,84.10
2023-11-30T09:21:59.689Z,84.00
2023-11-30T09:25:01.502Z,83.90
2023-11-30T09:28:03.789Z,84.10
2023-11-30T09:31:07.090Z,84.10
2023-11-30T09:34:10.261Z,84.00
2023-11-30T09:37:12.070Z,83.90
2023-11-30T09:40:14.670Z,83.60
2023-11-30T09:43:23.287Z,83.60
2023-11-30T09:46:25.022Z,83.60
2023-11-30T09:49:26.855Z,83.90
2023-11-30T09:52:29.483Z,83.90
2023-11-30T09:55:31.937Z,84.00
2023-11-30T09:58:34.557Z,84.10
2023-11-30T10:01:36.450Z,84.10
2023-11-30T10:04:41.088Z,84.00
2023-11-30T10:07:43.986Z,83.90
2023-11-30T10:10:47.022Z,84.00
2023-11-30T10:13:48.797Z,84.10
2023-11-30T10:16:50.722Z,84.20
2023-11-30T10:19:52.729Z,84.20
2023-11-30T10:22:54.597Z,84.10
2023-11-30T10:25:57.121Z,84.00
2023-11-30T10:28:59.237Z,84.00
2023-11-30T10:32:03.345Z,83.90
2023-11-30T10:35:08.861Z,83.90
2023-11-30T10:38:16.663Z,83.80
2023-11-30T10:41:22.924Z,83.80
2023-11-30T10:44:29.283Z,83.80
2023-11-30T10:47:31.652Z,83.70
2023-11-30T10:50:33.725Z,83.70
2023-11-30T10:54:05.759Z,83.70
2023-11-30T10:57:08.033Z,83.60
2023-11-30T11:00:16.252Z,83.70
2023-11-30T11:03:18.118Z,83.90
2023-11-30T11:06:25.948Z,83.80
2023-11-30T11:09:27.788Z,83.70
2023-11-30T11:12:34.838Z,83.50
2023-11-30T11:15:36.593Z,83.20
2023-11-30T11:18:41.730Z,83.00
2023-11-30T11:21:43.564Z,83.00
2023-11-30T11:24:47.201Z,82.90
2023-11-30T11:27:49.654Z,83.00
2023-11-30T11:30:51.684Z,83.20
2023-11-30T11:33:53.579Z,83.30
2023-11-30T11:36:55.545Z,83.50
2023-11-30T11:39:57.926Z,83.60
2023-11-30T11:43:00.494Z,83.40
2023-11-30T11:46:03.473Z,83.20
2023-11-30T11:49:05.236Z,82.90
2023-11-30T11:52:06.980Z,82.80
2023-11-30T11:55:09.907Z,82.60
2023-11-30T11:58:13.056Z,82.50
2023-11-30T12:01:14.906Z,82.50
2023-11-30T12:04:35.394Z,82.40
2023-11-30T12:07:50.907Z,82.20
2023-11-30T12:10:53.006Z,82.20
2023-11-30T12:13:55.240Z,82.20
2023-11-30T12:16:57.500Z,82.20
2023-11-30T12:19:59.346Z,82.10
2023-11-30T12:23:01.969Z,81.90
2023-11-30T12:26:03.861Z,81.90
2023-11-30T12:29:05.749Z,81.80
2023-11-30T12:32:07.590Z,81.80
2023-11-30T12:35:09.605Z,81.70
2023-11-30T12:38:12.672Z,81.60
2023-11-30T12:41:14.776Z,81.50
2023-11-30T12:44:17.261Z,81.50
2023-11-30T12:47:19.273Z,81.50
2023-11-30T12:50:21.170Z,81.50
2023-11-30T12:53:22.939Z,81.50
2023-11-30T12:56:24.825Z,81.50
2023-11-30T12:59:26.552Z,81.50
2023-11-30T13:02:28.906Z,81.70
2023-11-30T13:05:30.899Z,81.70
2023-11-30T13:08:33.017Z,81.80
2023-11-30T13:11:35.237Z,81.70
2023-11-30T13:14:36.997Z,81.70
2023-11-30T13:17:39.517Z,81.70
2023-11-30T13:20:44.332Z,81.70
2023-11-30T13:23:46.066Z,81.60
2023-11-30T13:26:49.257Z,81.50
2023-11-30T13:29:51.126Z,81.50
2023-11-30T13:32:53.943Z,81.40
2023-11-30T13:35:55.744Z,81.30
2023-11-30T13:38:57.581Z,81.20
2023-11-30T13:41:59.368Z,81.20
2023-11-30T13:45:02.330Z,81.30
2023-11-30T13:48:04.582Z,81.50
2023-11-30T13:51:07.418Z,81.60
2023-11-30T13:54:09.141Z,81.90
2023-11-30T13:57:11.112Z,82.10
2023-11-30T14:00:13.979Z,82.40
2023-11-30T14:03:17.349Z,82.50
2023-11-30T14:06:19.503Z,82.80
2023-11-30T14:09:27.595Z,82.90
2023-11-30T14:12:29.600Z,83.00
2023-11-30T14:15:34.747Z,83.10
2023-11-30T14:18:36.522Z,83.10
2023-11-30T14:21:38.282Z,83.10
2023-11-30T14:24:42.927Z,83.10
2023-11-30T14:27:48.658Z,83.00
2023-11-30T14:30:50.703Z,83.00
2023-11-30T14:33:52.609Z,83.00
2023-11-30T14:36:54.638Z,83.10
2023-11-30T14:39:56.505Z,83.10
2023-11-30T14:42:58.340Z,83.10
2023-11-30T14:46:00.324Z,83.10
2023-11-30T14:49:02.338Z,83.20
2023-11-30T14:52:04.725Z,83.10
2023-11-30T14:55:07.420Z,83.30
2023-11-30T14:58:10.631Z,83.30
2023-11-30T15:01:14.453Z,83.10
2023-11-30T15:04:16.851Z,83.20
2023-11-30T15:07:19.171Z,83.20
2023-11-30T15:10:21.922Z,83.10
2023-11-30T15:13:23.722Z,83.20
2023-11-30T15:16:26.861Z,83.30
2023-11-30T15:19:28.625Z,83.30
2023-11-30T15:22:30.515Z,83.40
2023-11-30T15:25:32.624Z,83.50
2023-11-30T15:28:35.289Z,83.50
2023-11-30T15:31:37.224Z,83.50
2023-11-30T15:34:39.040Z,83.60
2023-11-30T15:37:42.738Z,83.70
2023-11-30T15:40:44.432Z,83.70
2023-11-30T15:43:46.227Z,83.50
2023-11-30T15:46:48.269Z,83.30
2023-11-30T15:49:50.067Z,83.10
2023-11-30T15:52:52.340Z,83.00
2023-11-30T15:55:54.078Z,82.90
2023-11-30T15:58:56.028Z,82.80
2023-11-30T16:01:57.848Z,82.70
2023-11-30T16:04:59.617Z,82.90
2023-11-30T16:08:02.585Z,82.90
2023-11-30T16:11:04.810Z,82.80
2023-11-30T16:14:06.624Z,82.60
2023-11-30T16:17:28.757Z,82.50
2023-11-30T16:20:30.521Z,82.60
2023-11-30T16:23:32.263Z,82.50
2023-11-30T16:27:13.085Z,82.60
2023-11-30T16:30:14.888Z,82.70
2023-11-30T16:33:16.707Z,82.70
2023-11-30T16:36:19.399Z,83.00
2023-11-30T16:39:23.841Z,83.10
2023-11-30T16:42:26.469Z,83.20
2023-11-30T16:45:28.990Z,83.40
2023-11-30T16:48:55.721Z,83.50
2023-11-30T16:51:59.906Z,83.70
2023-11-30T16:55:02.630Z,83.80
2023-11-30T16:58:30.427Z,83.80
2023-11-30T17:01:32.820Z,83.80
2023-11-30T17:04:34.639Z,83.60
2023-11-30T17:11:59.749Z,83.70
2023-11-30T17:15:01.699Z,83.70
2023-11-30T17:18:04.799Z,83.80
2023-11-30T17:21:06.811Z,83.90
2023-11-30T17:24:10.135Z,84.10
2023-11-30T17:28:13.166Z,84.10
2023-11-30T17:31:15.072Z,84.20
2023-11-30T17:34:16.996Z,84.10
2023-11-30T17:37:18.960Z,84.10
2023-11-30T17:40:21.136Z,84.20
2023-11-30T17:43:22.906Z,84.20
2023-11-30T17:46:24.844Z,84.30
2023-11-30T17:49:27.073Z,84.50
2023-11-30T17:52:29.713Z,84.50
2023-11-30T17:55:33.696Z,84.60
2023-11-30T17:58:37.545Z,84.70
2023-11-30T18:01:39.276Z,84.80
2023-11-30T18:04:41.090Z,84.90
2023-11-30T18:07:45.957Z,84.90
2023-11-30T18:10:49.229Z,84.90
2023-11-30T18:13:50.998Z,85.00
2023-11-30T18:17:11.429Z,85.00
2023-11-30T18:20:13.239Z,85.00
2023-11-30T18:23:15.205Z,85.10
2023-11-30T18:27:14.879Z,85.20
2023-11-30T18:30:16.704Z,85.30
2023-11-30T18:33:18.683Z,85.20
2023-11-30T18:36:39.178Z,85.20
2023-11-30T18:39:40.998Z,85.30
2023-11-30T18:42:43.532Z,85.40
2023-11-30T18:45:45.731Z,85.40
2023-11-30T18:48:48.745Z,85.40
2023-11-30T18:51:50.522Z,85.40
2023-11-30T18:54:54.371Z,85.50
2023-11-30T18:57:56.629Z,85.50
2023-11-30T19:00:58.452Z,85.40
2023-11-30T19:04:00.431Z,85.50
2023-11-30T19:07:02.464Z,85.50
2023-11-30T19:10:04.747Z,85.60
2023-11-30T19:13:06.641Z,85.70
2023-11-30T19:16:11.429Z,85.80
2023-11-30T19:19:13.352Z,86.00
2023-11-30T19:22:15.249Z,86.10
2023-11-30T19:25:17.020Z,86.10
2023-11-30T19:28:19.103Z,86.20
2023-11-30T19:31:20.923Z,86.20
2023-11-30T19:34:22.767Z,86.20
2023-11-30T19:37:24.700Z,86.20
2023-11-30T19:40:26.489Z,86.10
2023-11-30T19:43:28.194Z,86.10
2023-11-30T19:46:30.380Z,86.20
2023-11-30T19:49:32.433Z,86.20
2023-11-30T19:52:36.302Z,86.20
2023-11-30T19:55:38.885Z,86.20
2023-11-30T19:58:44.709Z,86.30
2023-11-30T20:01:46.528Z,86.30
2023-11-30T20:04:48.270Z,86.30
2023-11-30T20:07:50.090Z,86.20
2023-11-30T20:10:52.778Z,86.20
2023-11-30T20:13:54.580Z,86.10
2023-11-30T20:16:56.749Z,86.20
2023-11-30T20:19:58.467Z,86.20
2023-11-30T20:23:01.453Z,86.10
2023-11-30T20:26:03.451Z,86.20
2023-11-30T20:29:05.167Z,86.20
2023-11-30T20:32:07.127Z,86.40
2023-11-30T20:35:09.337Z,86.50
2023-11-30T20:38:11.379Z,86.50
2023-11-30T20:41:13.129Z,86.50
2023-11-30T20:44:14.872Z,86.40
2023-11-30T20:47:16.801Z,86.50
2023-11-30T20:50:18.677Z,86.60
2023-11-30T20:53:20.457Z,86.50
2023-11-30T20:56:23.199Z,86.40
2023-11-30T20:59:27.173Z,86.10
2023-11-30T21:02:29.109Z,86.10
2023-11-30T21:05:30.951Z,86.20
2023-11-30T21:08:33.914Z,86.40
2023-11-30T21:11:39.739Z,86.40
2023-11-30T21:14:41.439Z,86.30
2023-11-30T21:17:43.461Z,86.40
2023-11-30T21:20:45.276Z,86.50
2023-11-30T21:23:47.062Z,86.60
2023-11-30T21:26:49.005Z,86.60
2023-11-30T21:29:50.823Z,86.60
2023-11-30T21:32:52.679Z,86.60
2023-11-30T21:35:54.472Z,86.80
2023-11-30T21:38:56.582Z,86.80
2023-11-30T21:41:58.750Z,86.80
2023-11-30T21:45:02.148Z,86.80
2023-11-30T21:48:04.621Z,86.80
2023-11-30T21:51:06.644Z,86.90
2023-11-30T21:54:08.570Z,86.90
2023-11-30T21:57:10.621Z,87.00
2023-11-30T22:00:13.325Z,87.10
2023-11-30T22:03:18.484Z,87.10
2023-11-30T22:06:20.522Z,87.20
2023-11-30T22:09:22.291Z,87.20
2023-11-30T22:12:24.120Z,87.10
2023-11-30T22:15:25.866Z,87.00
2023-11-30T22:18:30.585Z,86.90
2023-11-30T22:21:33.367Z,86.80
2023-11-30T22:24:35.226Z,86.60
2023-11-30T22:27:37.129Z,86.60
2023-11-30T22:30:38.916Z,86.60
2023-11-30T22:33:40.701Z,86.60
2023-11-30T22:36:45.924Z,86.50
2023-11-30T22:39:47.693Z,86.40
2023-11-30T22:42:49.535Z,86.40
2023-11-30T22:45:51.338Z,86.30
2023-11-30T22:48:53.325Z,86.30
2023-11-30T22:51:56.516Z,86.40
2023-11-30T22:54:58.386Z,86.50
2023-11-30T22:58:00.694Z,86.50
2023-11-30T23:01:02.578Z,86.70
2023-11-30T23:04:04.646Z,86.70
2023-11-30T23:07:07.645Z,86.70
2023-11-30T23:10:13.130Z,86.70
2023-11-30T23:13:14.850Z,86.80
2023-11-30T23:16:17.019Z,86.90
2023-11-30T23:19:18.862Z,86.90
2023-11-30T23:22:20.690Z,86.80
2023-11-30T23:25:22.410Z,86.80
2023-11-30T23:28:24.987Z,86.80
2023-11-30T23:31:26.844Z,86.90
2023-11-30T23:34:28.631Z,86.90
2023-11-30T23:37:30.827Z,87.00
2023-11-30T23:40:32.858Z,87.00
2023-11-30T23:43:34.672Z,87.10
2023-11-30T23:46:36.636Z,86.90
2023-11-30T23:49:38.753Z,86.80
2023-11-30T23:52:40.643Z,86.80
2023-11-30T23:55:42.697Z,86.80
2023-11-30T23:58:44.715Z,86.70
